sensor_id;sensor_type;location;lat;lon;timestamp;pressure;altitude;pressure_sealevel;temperature;humidity
44144;BME280;71749;51.920;4.492;2023-12-29T00:00:50;67234.09;;;12.36;100.00
44144;BME280;71749;51.920;4.492;2023-12-29T00:03:16;67247.63;;;12.58;100.00
44144;BME280;71749;51.920;4.492;2023-12-29T00:05:41;67237.25;;;12.44;100.00
44144;BME280;71749;51.920;4.492;2023-12-29T00:08:06;67243.06;;;12.44;100.00
44144;BME280;71749;51.920;4.492;2023-12-29T00:10:32;67268.34;;;12.69;100.00
44144;BME280;71749;51.920;4.492;2023-12-29T00:12:57;67230.53;;;12.38;100.00
44144;BME280;71749;51.920;4.492;2023-12-29T00:15:22;67270.03;;;12.71;100.00
44144;BME280;71749;51.920;4.492;2023-12-29T00:17:48;67290.72;;;12.90;100.00
44144;BME280;71749;51.920;4.492;2023-12-29T00:20:16;67240.75;;;12.49;100.00
44144;BME280;71749;51.920;4.492;2023-12-29T00:22:43;67253.84;;;12.56;100.00
44144;BME280;71749;51.920;4.492;2023-12-29T00:25:09;67285.69;;;12.85;100.00
44144;BME280;71749;51.920;4.492;2023-12-29T00:27:35;67253.03;;;12.60;100.00
44144;BME280;71749;51.920;4.492;2023-12-29T00:30:02;67256.78;;;12.61;100.00
44144;BME280;71749;51.920;4.492;2023-12-29T00:32:27;67289.91;;;12.94;100.00
44144;BME280;71749;51.920;4.492;2023-12-29T00:34:52;67293.66;;;12.95;100.00
44144;BME280;71749;51.920;4.492;2023-12-29T00:37:18;67262.00;;;12.68;100.00
44144;BME280;71749;51.920;4.492;2023-12-29T00:39:46;67282.13;;;12.87;100.00
44144;BME280;71749;51.920;4.492;2023-12-29T00:42:11;67270.78;;;12.74;100.00
44144;BME280;71749;51.920;4.492;2023-12-29T00:44:36;67295.19;;;12.94;100.00
44144;BME280;71749;51.920;4.492;2023-12-29T00:47:02;67270.59;;;12.72;100.00
44144;BME280;71749;51.920;4.492;2023-12-29T00:49:38;67257.19;;;12.59;100.00
44144;BME280;71749;51.920;4.492;2023-12-29T00:52:04;67273.16;;;12.79;100.00
44144;BME280;71749;51.920;4.492;2023-12-29T00:54:29;67260.53;;;12.62;100.00
44144;BME280;71749;51.920;4.492;2023-12-29T00:56:55;67264.22;;;12.71;100.00
44144;BME280;71749;51.920;4.492;2023-12-29T00:59:20;67300.75;;;12.99;100.00
44144;BME280;71749;51.920;4.492;2023-12-29T01:01:45;67291.03;;;12.95;100.00
44144;BME280;71749;51.920;4.492;2023-12-29T01:04:11;67240.75;;;12.49;100.00
44144;BME280;71749;51.920;4.492;2023-12-29T01:06:36;67282.50;;;12.85;100.00
44144;BME280;71749;51.920;4.492;2023-12-29T01:09:02;67243.38;;;12.49;100.00
44144;BME280;71749;51.920;4.492;2023-12-29T01:11:27;67292.97;;;12.92;100.00
44144;BME280;71749;51.920;4.492;2023-12-29T01:13:52;67249.91;;;12.53;100.00
44144;BME280;71749;51.920;4.492;2023-12-29T01:16:19;67285.44;;;12.90;100.00
44144;BME280;71749;51.920;4.492;2023-12-29T01:18:45;67292.41;;;12.91;100.00
44144;BME280;71749;51.920;4.492;2023-12-29T01:21:11;67278.97;;;12.79;100.00
44144;BME280;71749;51.920;4.492;2023-12-29T01:23:36;67286.63;;;12.84;100.00
44144;BME280;71749;51.920;4.492;2023-12-29T01:26:02;67264.63;;;12.68;100.00
44144;BME280;71749;51.920;4.492;2023-12-29T01:28:27;67261.81;;;12.66;100.00
44144;BME280;71749;51.920;4.492;2023-12-29T01:30:52;67291.28;;;12.90;100.00
44144;BME280;71749;51.920;4.492;2023-12-29T01:33:18;67301.13;;;13.04;100.00
44144;BME280;71749;51.920;4.492;2023-12-29T01:35:46;67281.00;;;12.86;100.00
44144;BME280;71749;51.920;4.492;2023-12-29T01:38:11;67257.50;;;12.64;100.00
44144;BME280;71749;51.920;4.492;2023-12-29T01:40:44;67254.00;;;12.59;100.00
44144;BME280;71749;51.920;4.492;2023-12-29T01:43:10;67263.09;;;12.69;100.00
44144;BME280;71749;51.920;4.492;2023-12-29T01:45:35;67273.56;;;12.77;100.00
44144;BME280;71749;51.920;4.492;2023-12-29T01:48:01;67262.38;;;12.66;100.00
44144;BME280;71749;51.920;4.492;2023-12-29T01:50:27;67248.78;;;12.52;100.00
44144;BME280;71749;51.920;4.492;2023-12-29T01:52:54;67256.63;;;12.59;100.00
44144;BME280;71749;51.920;4.492;2023-12-29T01:55:20;67257.34;;;12.62;100.00
44144;BME280;71749;51.920;4.492;2023-12-29T01:57:49;67277.63;;;12.83;100.00
44144;BME280;71749;51.920;4.492;2023-12-29T02:00:15;67211.69;;;12.23;100.00
44144;BME280;71749;51.920;4.492;2023-12-29T02:02:42;67251.59;;;12.54;100.00
44144;BME280;71749;51.920;4.492;2023-12-29T02:05:08;67264.78;;;12.71;100.00
44144;BME280;71749;51.920;4.492;2023-12-29T02:07:36;67284.00;;;12.84;100.00
44144;BME280;71749;51.920;4.492;2023-12-29T02:10:01;67254.00;;;12.59;100.00
44144;BME280;71749;51.920;4.492;2023-12-29T02:12:27;67247.47;;;12.55;100.00
44144;BME280;71749;51.920;4.492;2023-12-29T02:14:54;67249.34;;;12.52;100.00
44144;BME280;71749;51.920;4.492;2023-12-29T02:17:27;67243.06;;;12.44;100.00
44144;BME280;71749;51.920;4.492;2023-12-29T02:19:55;67246.56;;;12.50;100.00
44144;BME280;71749;51.920;4.492;2023-12-29T02:22:20;67254.00;;;12.59;100.00
44144;BME280;71749;51.920;4.492;2023-12-29T02:24:49;67246.41;;;12.47;100.00
44144;BME280;71749;51.920;4.492;2023-12-29T02:27:41;67216.91;;;12.30;100.00
44144;BME280;71749;51.920;4.492;2023-12-29T02:32:39;67233.88;;;12.41;100.00
44144;BME280;71749;51.920;4.492;2023-12-29T02:35:09;67227.03;;;12.32;100.00
44144;BME280;71749;51.920;4.492;2023-12-29T02:37:36;67232.94;;;12.42;100.00
44144;BME280;71749;51.920;4.492;2023-12-29T02:40:02;67238.91;;;12.45;100.00
44144;BME280;71749;51.920;4.492;2023-12-29T02:42:28;67235.56;;;12.42;100.00
44144;BME280;71749;51.920;4.492;2023-12-29T02:44:53;67249.16;;;12.57;100.00
44144;BME280;71749;51.920;4.492;2023-12-29T02:47:18;67238.91;;;12.45;100.00
44144;BME280;71749;51.920;4.492;2023-12-29T02:49:44;67233.88;;;12.41;100.00
44144;BME280;71749;51.920;4.492;2023-12-29T02:52:10;67231.09;;;12.38;100.00
44144;BME280;71749;51.920;4.492;2023-12-29T02:54:35;67258.47;;;12.63;100.00
44144;BME280;71749;51.920;4.492;2023-12-29T02:57:01;67230.53;;;12.38;100.00
44144;BME280;71749;51.920;4.492;2023-12-29T02:59:26;67218.97;;;12.30;100.00
44144;BME280;71749;51.920;4.492;2023-12-29T03:01:51;67231.25;;;12.41;100.00
44144;BME280;71749;51.920;4.492;2023-12-29T03:04:17;67234.44;;;12.41;100.00
44144;BME280;71749;51.920;4.492;2023-12-29T03:06:42;67244.09;;;12.52;100.00
44144;BME280;71749;51.920;4.492;2023-12-29T03:09:08;67271.47;;;12.77;100.00
44144;BME280;71749;51.920;4.492;2023-12-29T03:11:33;67294.63;;;12.93;100.00
44144;BME280;71749;51.920;4.492;2023-12-29T03:13:58;67290.72;;;12.90;100.00
44144;BME280;71749;51.920;4.492;2023-12-29T03:16:24;67263.31;;;12.65;100.00
44144;BME280;71749;51.920;4.492;2023-12-29T03:18:49;67259.44;;;12.61;100.00
44144;BME280;71749;51.920;4.492;2023-12-29T03:21:14;67259.00;;;12.63;100.00
44144;BME280;71749;51.920;4.492;2023-12-29T03:23:40;67281.75;;;12.82;100.00
44144;BME280;71749;51.920;4.492;2023-12-29T03:26:05;67279.88;;;12.85;100.00
44144;BME280;71749;51.920;4.492;2023-12-29T03:28:30;67273.56;;;12.77;100.00
44144;BME280;71749;51.920;4.492;2023-12-29T03:30:56;67270.91;;;12.77;100.00
44144;BME280;71749;51.920;4.492;2023-12-29T03:33:21;67280.25;;;12.83;100.00
44144;BME280;71749;51.920;4.492;2023-12-29T03:35:46;67260.47;;;12.69;100.00
44144;BME280;71749;51.920;4.492;2023-12-29T03:38:13;67247.47;;;12.55;100.00
44144;BME280;71749;51.920;4.492;2023-12-29T03:40:39;67219.19;;;12.25;100.00
44144;BME280;71749;51.920;4.492;2023-12-29T03:43:05;67218.97;;;12.30;100.00
44144;BME280;71749;51.920;4.492;2023-12-29T03:45:30;67255.69;;;12.60;100.00
44144;BME280;71749;51.920;4.492;2023-12-29T03:47:56;67247.84;;;12.53;100.00
44144;BME280;71749;51.920;4.492;2023-12-29T03:50:21;67269.09;;;12.73;100.00
44144;BME280;71749;51.920;4.492;2023-12-29T03:52:47;67255.28;;;12.62;100.00
44144;BME280;71749;51.920;4.492;2023-12-29T03:55:12;67273.41;;;12.74;100.00
44144;BME280;71749;51.920;4.492;2023-12-29T03:57:38;67263.09;;;12.69;100.00
44144;BME280;71749;51.920;4.492;2023-12-29T04:00:04;67271.16;;;12.72;100.00
44144;BME280;71749;51.920;4.492;2023-12-29T04:02:29;67288.47;;;12.88;100.00
44144;BME280;71749;51.920;4.492;2023-12-29T04:04:55;67258.88;;;12.61;100.00
44144;BME280;71749;51.920;4.492;2023-12-29T04:07:20;67302.22;;;13.05;100.00
44144;BME280;71749;51.920;4.492;2023-12-29T04:09:45;67258.63;;;12.65;100.00
44144;BME280;71749;51.920;4.492;2023-12-29T04:12:12;67265.34;;;12.72;100.00
44144;BME280;71749;51.920;4.492;2023-12-29T04:14:37;67272.44;;;12.76;100.00
44144;BME280;71749;51.920;4.492;2023-12-29T04:17:03;67277.63;;;12.83;100.00
44144;BME280;71749;51.920;4.492;2023-12-29T04:19:30;67291.44;;;12.93;100.00
44144;BME280;71749;51.920;4.492;2023-12-29T04:21:55;67257.50;;;12.64;100.00
44144;BME280;71749;51.920;4.492;2023-12-29T04:24:22;67265.00;;;12.66;100.00
44144;BME280;71749;51.920;4.492;2023-12-29T04:26:47;67260.69;;;12.65;100.00
44144;BME280;71749;51.920;4.492;2023-12-29T04:29:12;67258.06;;;12.65;100.00
44144;BME280;71749;51.920;4.492;2023-12-29T04:31:38;67250.47;;;12.53;100.00
44144;BME280;71749;51.920;4.492;2023-12-29T04:34:03;67285.28;;;12.87;100.00
44144;BME280;71749;51.920;4.492;2023-12-29T04:36:28;67243.38;;;12.49;100.00
44144;BME280;71749;51.920;4.492;2023-12-29T04:38:54;67252.88;;;12.58;100.00
44144;BME280;71749;51.920;4.492;2023-12-29T04:41:19;67261.66;;;12.63;100.00
44144;BME280;71749;51.920;4.492;2023-12-29T04:43:44;67261.81;;;12.66;100.00
44144;BME280;71749;51.920;4.492;2023-12-29T04:46:10;67283.78;;;12.88;100.00
44144;BME280;71749;51.920;4.492;2023-12-29T04:48:35;67296.25;;;13.02;100.00
44144;BME280;71749;51.920;4.492;2023-12-29T04:51:00;67234.44;;;12.41;100.00
44144;BME280;71749;51.920;4.492;2023-12-29T04:53:26;67272.84;;;12.74;100.00
44144;BME280;71749;51.920;4.492;2023-12-29T04:55:51;67270.59;;;12.72;100.00
44144;BME280;71749;51.920;4.492;2023-12-29T04:58:17;67274.66;;;12.78;100.00
44144;BME280;71749;51.920;4.492;2023-12-29T05:00:42;67283.22;;;12.88;100.00
44144;BME280;71749;51.920;4.492;2023-12-29T05:03:07;67257.13;;;12.66;100.00
44144;BME280;71749;51.920;4.492;2023-12-29T05:05:33;67273.56;;;12.77;100.00
44144;BME280;71749;51.920;4.492;2023-12-29T05:07:58;67271.72;;;12.73;100.00
44144;BME280;71749;51.920;4.492;2023-12-29T05:10:23;67256.78;;;12.61;100.00
44144;BME280;71749;51.920;4.492;2023-12-29T05:12:49;67289.22;;;12.91;100.00
44144;BME280;71749;51.920;4.492;2023-12-29T05:15:14;67274.66;;;12.78;100.00
44144;BME280;71749;51.920;4.492;2023-12-29T05:17:39;67284.19;;;12.86;100.00
44144;BME280;71749;51.920;4.492;2023-12-29T05:20:06;67248.97;;;12.54;100.00
44144;BME280;71749;51.920;4.492;2023-12-29T05:22:32;67267.56;;;12.74;100.00
44144;BME280;71749;51.920;4.492;2023-12-29T05:24:57;67266.47;;;12.73;100.00
44144;BME280;71749;51.920;4.492;2023-12-29T05:27:25;67272.44;;;12.76;100.00
44144;BME280;71749;51.920;4.492;2023-12-29T05:29:51;67263.19;;;12.62;100.00
44144;BME280;71749;51.920;4.492;2023-12-29T05:32:16;67250.66;;;12.56;100.00
44144;BME280;71749;51.920;4.492;2023-12-29T05:34:41;67287.91;;;12.87;100.00
44144;BME280;71749;51.920;4.492;2023-12-29T05:37:07;67245.22;;;12.53;100.00
44144;BME280;71749;51.920;4.492;2023-12-29T05:39:32;67247.84;;;12.53;100.00
44144;BME280;71749;51.920;4.492;2023-12-29T05:41:58;67280.44;;;12.85;100.00
44144;BME280;71749;51.920;4.492;2023-12-29T05:44:23;67273.56;;;12.77;100.00
44144;BME280;71749;51.920;4.492;2023-12-29T05:46:48;67293.28;;;12.97;100.00
44144;BME280;71749;51.920;4.492;2023-12-29T05:49:14;67269.09;;;12.73;100.00
44144;BME280;71749;51.920;4.492;2023-12-29T05:51:40;67233.16;;;12.38;100.00
44144;BME280;71749;51.920;4.492;2023-12-29T05:54:05;67191.25;;;12.00;100.00
44144;BME280;71749;51.920;4.492;2023-12-29T05:56:30;67221.75;;;12.32;100.00
44144;BME280;71749;51.920;4.492;2023-12-29T05:58:56;67252.47;;;12.60;100.00
44144;BME280;71749;51.920;4.492;2023-12-29T06:01:21;67221.03;;;12.29;100.00
44144;BME280;71749;51.920;4.492;2023-12-29T06:03:47;67251.03;;;12.54;100.00
44144;BME280;71749;51.920;4.492;2023-12-29T06:06:12;67222.09;;;12.37;100.00
44144;BME280;71749;51.920;4.492;2023-12-29T06:08:37;67251.94;;;12.59;100.00
44144;BME280;71749;51.920;4.492;2023-12-29T06:11:03;67231.47;;;12.36;100.00
44144;BME280;71749;51.920;4.492;2023-12-29T06:13:28;67227.59;;;12.33;100.00
44144;BME280;71749;51.920;4.492;2023-12-29T06:15:54;67205.78;;;12.13;100.00
44144;BME280;71749;51.920;4.492;2023-12-29T06:18:20;67267.41;;;12.71;100.00
44144;BME280;71749;51.920;4.492;2023-12-29T06:20:46;67279.13;;;12.82;100.00
44144;BME280;71749;51.920;4.492;2023-12-29T06:23:11;67278.19;;;12.83;100.00
44144;BME280;71749;51.920;4.492;2023-12-29T06:25:37;67296.81;;;13.02;100.00
44144;BME280;71749;51.920;4.492;2023-12-29T06:28:05;67305.25;;;13.03;100.00
44144;BME280;71749;51.920;4.492;2023-12-29T06:30:31;67264.22;;;12.71;100.00
44144;BME280;71749;51.920;4.492;2023-12-29T06:32:57;67296.25;;;13.02;100.00
44144;BME280;71749;51.920;4.492;2023-12-29T06:35:23;67283.63;;;12.86;100.00
44144;BME280;71749;51.920;4.492;2023-12-29T06:37:48;67240.44;;;12.44;100.00
44144;BME280;71749;51.920;4.492;2023-12-29T06:40:16;67284.75;;;12.87;100.00
44144;BME280;71749;51.920;4.492;2023-12-29T06:42:42;67273.56;;;12.77;100.00
44144;BME280;71749;51.920;4.492;2023-12-29T06:45:07;67260.88;;;12.67;100.00
44144;BME280;71749;51.920;4.492;2023-12-29T06:47:36;67284.75;;;12.87;100.00
44144;BME280;71749;51.920;4.492;2023-12-29T06:50:01;67284.75;;;12.87;100.00
44144;BME280;71749;51.920;4.492;2023-12-29T06:52:28;67278.56;;;12.81;100.00
44144;BME280;71749;51.920;4.492;2023-12-29T06:54:59;67287.91;;;12.87;100.00
44144;BME280;71749;51.920;4.492;2023-12-29T06:57:25;67278.41;;;12.79;100.00
44144;BME280;71749;51.920;4.492;2023-12-29T06:59:50;67262.75;;;12.64;100.00
44144;BME280;71749;51.920;4.492;2023-12-29T07:02:15;67248.59;;;12.56;100.00
44144;BME280;71749;51.920;4.492;2023-12-29T07:04:42;67253.59;;;12.61;100.00
44144;BME280;71749;51.920;4.492;2023-12-29T07:07:08;67267.25;;;12.68;100.00
44144;BME280;71749;51.920;4.492;2023-12-29T07:09:33;67232.94;;;12.42;100.00
44144;BME280;71749;51.920;4.492;2023-12-29T07:11:59;67226.63;;;12.34;100.00
44144;BME280;71749;51.920;4.492;2023-12-29T07:14:24;67255.84;;;12.63;100.00
44144;BME280;71749;51.920;4.492;2023-12-29T07:16:49;67261.25;;;12.65;100.00
44144;BME280;71749;51.920;4.492;2023-12-29T07:19:15;67251.78;;;12.57;100.00
44144;BME280;71749;51.920;4.492;2023-12-29T07:21:40;67253.44;;;12.58;100.00
44144;BME280;71749;51.920;4.492;2023-12-29T07:24:06;67259.56;;;12.64;100.00
44144;BME280;71749;51.920;4.492;2023-12-29T07:26:34;67280.66;;;12.81;100.00
44144;BME280;71749;51.920;4.492;2023-12-29T07:28:59;67275.78;;;12.79;100.00
44144;BME280;71749;51.920;4.492;2023-12-29T07:31:25;67279.88;;;12.85;100.00
44144;BME280;71749;51.920;4.492;2023-12-29T07:33:51;67259.56;;;12.64;100.00
44144;BME280;71749;51.920;4.492;2023-12-29T07:36:16;67269.88;;;12.68;100.00
44144;BME280;71749;51.920;4.492;2023-12-29T07:38:41;67258.31;;;12.60;100.00
44144;BME280;71749;51.920;4.492;2023-12-29T07:41:08;67273.41;;;12.74;100.00
44144;BME280;71749;51.920;4.492;2023-12-29T07:43:35;67251.94;;;12.59;100.00
44144;BME280;71749;51.920;4.492;2023-12-29T07:46:01;67279.53;;;12.80;100.00
44144;BME280;71749;51.920;4.492;2023-12-29T07:48:26;67224.41;;;12.32;100.00
44144;BME280;71749;51.920;4.492;2023-12-29T07:50:52;67189.59;;;11.98;100.00
44144;BME280;71749;51.920;4.492;2023-12-29T07:53:18;67230.13;;;12.40;100.00
44144;BME280;71749;51.920;4.492;2023-12-29T07:55:44;67264.94;;;12.74;100.00
44144;BME280;71749;51.920;4.492;2023-12-29T07:58:11;67273.00;;;12.76;100.00
44144;BME280;71749;51.920;4.492;2023-12-29T08:00:37;67274.84;;;12.80;100.00
44144;BME280;71749;51.920;4.492;2023-12-29T08:03:03;67275.63;;;12.76;100.00
44144;BME280;71749;51.920;4.492;2023-12-29T08:05:28;67239.31;;;12.43;100.00
44144;BME280;71749;51.920;4.492;2023-12-29T08:07:54;67266.47;;;12.73;100.00
44144;BME280;71749;51.920;4.492;2023-12-29T08:10:20;67264.78;;;12.71;100.00
44144;BME280;71749;51.920;4.492;2023-12-29T08:12:45;67257.91;;;12.62;100.00
44144;BME280;71749;51.920;4.492;2023-12-29T08:15:10;67301.88;;;13.00;100.00
44144;BME280;71749;51.920;4.492;2023-12-29T08:17:36;67269.47;;;12.71;100.00
44144;BME280;71749;51.920;4.492;2023-12-29T08:20:03;67213.22;;;12.22;100.00
44144;BME280;71749;51.920;4.492;2023-12-29T08:22:31;67262.56;;;12.69;100.00
44144;BME280;71749;51.920;4.492;2023-12-29T08:24:57;67257.34;;;12.62;100.00
44144;BME280;71749;51.920;4.492;2023-12-29T08:27:24;67257.91;;;12.62;100.00
44144;BME280;71749;51.920;4.492;2023-12-29T08:29:53;67236.84;;;12.46;100.00
44144;BME280;71749;51.920;4.492;2023-12-29T08:32:19;67246.00;;;12.49;100.00
44144;BME280;71749;51.920;4.492;2023-12-29T08:34:44;67241.88;;;12.50;100.00
44144;BME280;71749;51.920;4.492;2023-12-29T08:37:09;67224.94;;;12.33;100.00
44144;BME280;71749;51.920;4.492;2023-12-29T08:39:35;67202.03;;;12.12;100.00
44144;BME280;71749;51.920;4.492;2023-12-29T08:42:00;67219.53;;;12.30;100.00
44144;BME280;71749;51.920;4.492;2023-12-29T08:44:25;67261.09;;;12.63;100.00
44144;BME280;71749;51.920;4.492;2023-12-29T08:46:51;67251.78;;;12.57;100.00
44144;BME280;71749;51.920;4.492;2023-12-29T08:49:16;67287.69;;;12.92;100.00
44144;BME280;71749;51.920;4.492;2023-12-29T08:51:42;67250.47;;;12.53;100.00
44144;BME280;71749;51.920;4.492;2023-12-29T08:54:07;67256.22;;;12.61;100.00
44144;BME280;71749;51.920;4.492;2023-12-29T08:56:32;67254.94;;;12.57;100.00
44144;BME280;71749;51.920;4.492;2023-12-29T08:58:58;67281.38;;;12.84;100.00
44144;BME280;71749;51.920;4.492;2023-12-29T09:01:23;67318.69;;;13.15;100.00
44144;BME280;71749;51.920;4.492;2023-12-29T09:03:48;67304.47;;;13.07;100.00
44144;BME280;71749;51.920;4.492;2023-12-29T09:06:14;67296.88;;;12.95;100.00
44144;BME280;71749;51.920;4.492;2023-12-29T09:08:40;67275.41;;;12.81;100.00
44144;BME280;71749;51.920;4.492;2023-12-29T09:11:06;67310.44;;;13.10;100.00
44144;BME280;71749;51.920;4.492;2023-12-29T09:13:31;67265.72;;;12.69;100.00
44144;BME280;71749;51.920;4.492;2023-12-29T09:15:59;67282.88;;;12.83;100.00
44144;BME280;71749;51.920;4.492;2023-12-29T09:21:00;67303.00;;;13.01;100.00
44144;BME280;71749;51.920;4.492;2023-12-29T09:23:27;67288.81;;;12.93;100.00
44144;BME280;71749;51.920;4.492;2023-12-29T09:25:54;67326.53;;;13.22;100.00
44144;BME280;71749;51.920;4.492;2023-12-29T09:28:20;67331.13;;;13.29;100.00
44144;BME280;71749;51.920;4.492;2023-12-29T09:30:47;67286.41;;;12.88;100.00
44144;BME280;71749;51.920;4.492;2023-12-29T09:33:14;67304.31;;;13.04;100.00
44144;BME280;71749;51.920;4.492;2023-12-29T09:35:41;67331.53;;;13.27;100.00
44144;BME280;71749;51.920;4.492;2023-12-29T09:38:08;67280.25;;;12.83;100.00
44144;BME280;71749;51.920;4.492;2023-12-29T09:40:36;67277.63;;;12.83;100.00
44144;BME280;71749;51.920;4.492;2023-12-29T09:43:03;67334.19;;;13.27;100.00
44144;BME280;71749;51.920;4.492;2023-12-29T09:45:33;67340.25;;;13.39;100.00
44144;BME280;71749;51.920;4.492;2023-12-29T09:48:01;67330.59;;;13.28;100.00
44144;BME280;71749;51.920;4.492;2023-12-29T09:50:30;67340.66;;;13.37;100.00
44144;BME280;71749;51.920;4.492;2023-12-29T09:52:58;67327.56;;;13.30;100.00
44144;BME280;71749;51.920;4.492;2023-12-29T09:55:26;67317.91;;;13.19;100.00
44144;BME280;71749;51.920;4.492;2023-12-29T09:57:53;67321.25;;;13.22;100.00
44144;BME280;71749;51.920;4.492;2023-12-29T10:00:21;67343.28;;;13.37;100.00
44144;BME280;71749;51.920;4.492;2023-12-29T10:02:51;67357.81;;;13.51;100.00
44144;BME280;71749;51.920;4.492;2023-12-29T10:05:18;67340.66;;;13.37;100.00
44144;BME280;71749;51.920;4.492;2023-12-29T10:07:46;67332.25;;;13.30;100.00
44144;BME280;71749;51.920;4.492;2023-12-29T10:10:14;67335.94;;;13.38;100.00
44144;BME280;71749;51.920;4.492;2023-12-29T10:12:44;67349.59;;;13.45;100.00
44144;BME280;71749;51.920;4.492;2023-12-29T10:15:33;67331.31;;;13.31;100.00
44144;BME280;71749;51.920;4.492;2023-12-29T10:18:14;67322.34;;;13.23;100.00
44144;BME280;71749;51.920;4.492;2023-12-29T10:20:56;67352.56;;;13.51;100.00
44144;BME280;71749;51.920;4.492;2023-12-29T10:24:11;67390.81;;;13.80;100.00
44144;BME280;71749;51.920;4.492;2023-12-29T10:26:40;67375.31;;;13.69;100.00
44144;BME280;71749;51.920;4.492;2023-12-29T10:29:07;67353.84;;;13.54;100.00
44144;BME280;71749;51.920;4.492;2023-12-29T10:31:35;67380.34;;;13.73;100.00
44144;BME280;71749;51.920;4.492;2023-12-29T10:34:21;67381.06;;;13.76;100.00
44144;BME280;71749;51.920;4.492;2023-12-29T10:36:57;67360.63;;;13.53;100.00
44144;BME280;71749;51.920;4.492;2023-12-29T10:39:24;67333.56;;;13.33;100.00
44144;BME280;71749;51.920;4.492;2023-12-29T10:42:03;67311.19;;;13.13;100.00
44144;BME280;71749;51.920;4.492;2023-12-29T10:44:35;67338.41;;;13.35;100.00
44144;BME280;71749;51.920;4.492;2023-12-29T10:47:12;67359.09;;;13.54;100.00
44144;BME280;71749;51.920;4.492;2023-12-29T10:49:40;67362.28;;;13.55;100.00
44144;BME280;71749;51.920;4.492;2023-12-29T10:52:11;67369.00;;;13.61;100.00
44144;BME280;71749;51.920;4.492;2023-12-29T10:54:40;67365.81;;;13.60;100.00
44144;BME280;71749;51.920;4.492;2023-12-29T10:57:07;67383.31;;;13.78;100.00
44144;BME280;71749;51.920;4.492;2023-12-29T10:59:34;67385.00;;;13.80;100.00
44144;BME280;71749;51.920;4.492;2023-12-29T11:02:01;67379.97;;;13.75;100.00
44144;BME280;71749;51.920;4.492;2023-12-29T11:04:32;67345.69;;;13.42;100.00
44144;BME280;71749;51.920;4.492;2023-12-29T11:06:59;67379.66;;;13.70;100.00
44144;BME280;71749;51.920;4.492;2023-12-29T11:09:30;67374.59;;;13.66;100.00
44144;BME280;71749;51.920;4.492;2023-12-29T11:12:00;67378.34;;;13.67;100.00
44144;BME280;71749;51.920;4.492;2023-12-29T11:15:38;67409.03;;;14.02;100.00
44144;BME280;71749;51.920;4.492;2023-12-29T11:18:25;67412.47;;;13.98;100.00
44144;BME280;71749;51.920;4.492;2023-12-29T11:21:13;67418.25;;;14.05;100.00
44144;BME280;71749;51.920;4.492;2023-12-29T11:24:00;67381.63;;;13.77;100.00
44144;BME280;71749;51.920;4.492;2023-12-29T11:26:45;67406.25;;;13.99;100.00
44144;BME280;71749;51.920;4.492;2023-12-29T11:29:31;67395.84;;;13.85;100.00
44144;BME280;71749;51.920;4.492;2023-12-29T11:32:22;67374.22;;;13.68;100.00
44144;BME280;71749;51.920;4.492;2023-12-29T11:35:18;67376.44;;;13.70;100.00
44144;BME280;71749;51.920;4.492;2023-12-29T11:41:19;67408.16;;;13.96;100.00
44144;BME280;71749;51.920;4.492;2023-12-29T11:44:07;67360.41;;;13.58;100.00
44144;BME280;71749;51.920;4.492;2023-12-29T11:46:53;67388.75;;;13.81;100.00
44144;BME280;71749;51.920;4.492;2023-12-29T11:49:58;67420.47;;;14.07;100.00
44144;BME280;71749;51.920;4.492;2023-12-29T11:52:44;67383.56;;;13.74;100.00
44144;BME280;71749;51.920;4.492;2023-12-29T11:55:40;67417.44;;;14.09;100.00
44144;BME280;71749;51.920;4.492;2023-12-29T11:58:27;67409.03;;;14.02;100.00
44144;BME280;71749;51.920;4.492;2023-12-29T12:01:34;67400.09;;;13.94;100.00
44144;BME280;71749;51.920;4.492;2023-12-29T12:04:39;67412.81;;;14.03;100.00
44144;BME280;71749;51.920;4.492;2023-12-29T12:13:06;67414.63;;;14.07;100.00
44144;BME280;71749;51.920;4.492;2023-12-29T12:15:53;67441.34;;;14.28;100.00
44144;BME280;71749;51.920;4.492;2023-12-29T12:18:39;67429.19;;;14.20;100.00
44144;BME280;71749;51.920;4.492;2023-12-29T12:21:26;67389.31;;;13.81;100.00
44144;BME280;71749;51.920;4.492;2023-12-29T12:24:11;67407.91;;;14.01;100.00
44144;BME280;71749;51.920;4.492;2023-12-29T12:26:57;67400.66;;;13.94;100.00
44144;BME280;71749;51.920;4.492;2023-12-29T12:29:42;67374.22;;;13.68;100.00
44144;BME280;71749;51.920;4.492;2023-12-29T12:32:29;67405.69;;;13.99;100.00
44144;BME280;71749;51.920;4.492;2023-12-29T12:35:16;67402.00;;;13.90;100.00
44144;BME280;71749;51.920;4.492;2023-12-29T12:38:15;67413.19;;;14.01;100.00
44144;BME280;71749;51.920;4.492;2023-12-29T12:41:11;67419.13;;;14.11;100.00
44144;BME280;71749;51.920;4.492;2023-12-29T12:44:15;67445.25;;;14.32;100.00
44144;BME280;71749;51.920;4.492;2023-12-29T12:47:06;67444.69;;;14.31;100.00
44144;BME280;71749;51.920;4.492;2023-12-29T12:49:53;67448.06;;;14.35;99.94
44144;BME280;71749;51.920;4.492;2023-12-29T12:52:38;67453.66;;;14.40;99.52
44144;BME280;71749;51.920;4.492;2023-12-29T12:55:25;67448.22;;;14.37;99.31
44144;BME280;71749;51.920;4.492;2023-12-29T12:58:12;67460.00;;;14.48;98.90
44144;BME280;71749;51.920;4.492;2023-12-29T13:01:01;67471.75;;;14.58;98.79
44144;BME280;71749;51.920;4.492;2023-12-29T13:03:47;67449.72;;;14.36;98.97
44144;BME280;71749;51.920;4.492;2023-12-29T13:06:33;67459.66;;;14.43;98.92
44144;BME280;71749;51.920;4.492;2023-12-29T13:09:21;67434.63;;;14.22;99.41
44144;BME280;71749;51.920;4.492;2023-12-29T13:12:13;67449.00;;;14.33;99.60
44144;BME280;71749;51.920;4.492;2023-12-29T13:15:07;67450.28;;;14.37;99.60
44144;BME280;71749;51.920;4.492;2023-12-29T13:17:55;67425.28;;;14.16;99.60